createdAt,value
2023-03-23T15:58:50.724Z,57.26
2023-03-23T16:01:22.920Z,56.18
2023-03-23T16:03:54.433Z,56.31
2023-03-23T16:06:25.157Z,57.41
2023-03-23T16:09:01.604Z,56.61
2023-03-23T16:11:33.066Z,57.40
2023-03-23T16:14:04.095Z,57.51
2023-03-23T16:16:35.436Z,57.34
2023-03-23T16:19:09.225Z,57.69
2023-03-23T16:21:37.661Z,58.43
2023-03-23T16:24:13.468Z,58.70
2023-03-23T16:26:43.860Z,57.63
2023-03-23T16:29:39.841Z,58.18
2023-03-23T16:32:16.858Z,57.66
2023-03-23T16:34:46.323Z,57.44
2023-03-23T16:37:16.945Z,56.81
2023-03-23T16:39:48.485Z,56.55
2023-03-23T16:42:21.136Z,56.85
2023-03-23T16:44:52.797Z,57.62
2023-03-23T16:47:25.908Z,57.97
2023-03-23T16:49:55.166Z,56.32
2023-03-23T16:52:23.509Z,56.38
2023-03-23T16:54:57.041Z,56.60
2023-03-23T16:57:30.339Z,57.96
2023-03-23T17:00:08.017Z,56.59
2023-03-23T17:02:40.678Z,57.34
2023-03-23T17:05:11.380Z,57.93
2023-03-23T17:07:43.836Z,57.23
2023-03-23T17:10:15.611Z,56.01
2023-03-23T17:12:47.017Z,57.74
2023-03-23T17:15:15.304Z,58.43
2023-03-23T17:17:43.669Z,59.09
2023-03-23T17:20:21.445Z,58.71
2023-03-23T17:22:53.553Z,58.79
2023-03-23T17:25:25.803Z,58.68
2023-03-23T17:28:06.029Z,58.80
2023-03-23T17:30:38.029Z,58.85
2023-03-23T17:33:06.703Z,58.95
2023-03-23T17:35:35.430Z,59.83
2023-03-23T17:38:08.917Z,59.16
2023-03-23T17:40:43.978Z,59.47
2023-03-23T17:45:59.501Z,60.42
2023-03-23T17:48:33.986Z,60.51
2023-03-23T17:51:08.649Z,59.83
2023-03-23T17:53:39.048Z,60.15
2023-03-23T17:56:13.535Z,60.08
2023-03-23T17:58:47.522Z,60.80
2023-03-23T18:01:20.672Z,60.67
2023-03-23T18:03:49.895Z,58.92
2023-03-23T18:06:21.854Z,58.73
2023-03-23T18:08:55.211Z,59.58
2023-03-23T18:11:28.785Z,60.07
2023-03-23T18:14:00.568Z,60.80
2023-03-23T18:16:41.918Z,60.22
2023-03-23T18:19:11.355Z,60.75
2023-03-23T18:21:46.098Z,61.29
2023-03-23T18:24:17.950Z,61.57
2023-03-23T18:26:46.690Z,60.75
2023-03-23T18:29:22.383Z,61.34
2023-03-23T18:31:51.487Z,61.53
2023-03-23T18:37:03.359Z,61.37
2023-03-23T18:39:38.404Z,61.30
2023-03-23T18:42:09.228Z,61.74
2023-03-23T18:44:45.956Z,61.50
2023-03-23T18:47:18.939Z,62.09
2023-03-23T18:49:59.873Z,61.38
2023-03-23T18:52:42.810Z,62.51
2023-03-23T18:55:22.048Z,63.27
2023-03-23T18:57:54.867Z,63.10
2023-03-23T19:00:25.642Z,62.47
2023-03-23T19:02:56.065Z,62.66
2023-03-23T19:05:26.643Z,62.74
2023-03-23T19:07:55.398Z,63.56
2023-03-23T19:10:29.393Z,64.20
2023-03-23T19:12:59.610Z,63.81
2023-03-23T19:15:35.491Z,63.20
2023-03-23T19:18:04.760Z,63.43
2023-03-23T19:21:06.573Z,63.42
2023-03-23T19:23:24.838Z,63.74
2023-03-23T19:26:06.313Z,64.56
2023-03-23T19:29:23.219Z,64.32
2023-03-23T19:31:38.455Z,64.09
2023-03-23T19:34:08.633Z,64.97
2023-03-23T19:36:42.914Z,64.85
2023-03-23T19:39:21.771Z,64.57
2023-03-23T19:41:49.978Z,65.28
2023-03-23T19:44:22.118Z,65.34
2023-03-23T19:46:52.272Z,65.18
2023-03-23T19:49:21.042Z,65.31
2023-03-23T19:51:50.836Z,65.45
2023-03-23T19:54:49.997Z,66.07
2023-03-23T19:57:22.401Z,65.93
2023-03-23T19:59:51.280Z,66.12
2023-03-23T20:02:29.502Z,65.76
2023-03-23T20:05:04.572Z,65.14
2023-03-23T20:07:33.440Z,65.00
2023-03-23T20:10:02.651Z,64.64
2023-03-23T20:12:40.454Z,66.00
2023-03-23T20:15:14.790Z,65.75
2023-03-23T20:17:53.462Z,65.29
2023-03-23T20:20:25.955Z,64.98
2023-03-23T20:22:57.897Z,64.58
2023-03-23T20:25:26.741Z,63.92
2023-03-23T20:27:55.143Z,64.76
2023-03-23T20:30:23.844Z,64.58
2023-03-23T20:33:00.862Z,65.33
2023-03-23T20:35:30.943Z,64.56
2023-03-23T20:38:03.258Z,65.74
2023-03-23T20:40:36.489Z,65.17
2023-03-23T20:43:10.724Z,64.89
2023-03-23T20:45:42.834Z,65.36
2023-03-23T20:48:16.361Z,65.85
2023-03-23T20:50:49.745Z,65.45
2023-03-23T20:53:20.833Z,66.24
2023-03-23T20:55:52.239Z,66.01
2023-03-23T20:58:21.656Z,66.90
2023-03-23T21:00:58.547Z,66.25
2023-03-23T21:03:33.416Z,67.51
2023-03-23T21:06:03.439Z,67.43
2023-03-23T21:08:34.173Z,68.69
2023-03-23T21:11:02.097Z,67.93
2023-03-23T21:13:30.253Z,69.21
2023-03-23T21:15:59.412Z,68.67
2023-03-23T21:18:31.856Z,68.52
2023-03-23T21:21:08.319Z,68.08
2023-03-23T21:23:49.561Z,67.08
2023-03-23T21:26:25.472Z,67.74
2023-03-23T21:28:54.244Z,66.33
2023-03-23T21:31:27.925Z,65.52
2023-03-23T21:34:03.139Z,64.57
2023-03-23T21:36:37.584Z,64.37
2023-03-23T21:39:06.568Z,65.15
2023-03-23T21:41:42.506Z,66.23
2023-03-23T21:44:15.907Z,66.59
2023-03-23T21:46:46.629Z,67.48
2023-03-23T21:49:20.158Z,67.83
2023-03-23T21:51:52.751Z,68.05
2023-03-23T21:54:23.970Z,67.30
2023-03-23T21:56:54.343Z,67.71
2023-03-23T21:59:23.871Z,66.10
2023-03-23T22:02:02.116Z,67.15
2023-03-23T22:04:31.908Z,66.67
2023-03-23T22:07:03.235Z,66.57
2023-03-23T22:09:40.876Z,64.78
2023-03-23T22:12:12.561Z,65.22
2023-03-23T22:14:41.250Z,63.83
2023-03-23T22:17:10.449Z,63.99
2023-03-23T22:19:41.151Z,65.73
2023-03-23T22:22:12.877Z,64.97
2023-03-23T22:24:43.258Z,64.38
2023-03-23T22:27:15.150Z,63.61
2023-03-23T22:29:44.503Z,62.34
2023-03-23T22:32:15.945Z,64.72
2023-03-23T22:34:49.769Z,64.02
2023-03-23T22:37:19.741Z,65.78
2023-03-23T22:39:59.821Z,66.96
2023-03-23T22:42:31.952Z,65.85
2023-03-23T22:45:01.052Z,68.85
2023-03-23T22:47:29.606Z,68.44
2023-03-23T22:49:59.986Z,68.64
2023-03-23T22:52:30.255Z,68.85
2023-03-23T22:55:01.558Z,69.13
2023-03-23T22:57:47.424Z,70.92
2023-03-23T23:00:22.793Z,70.97
2023-03-23T23:03:06.493Z,70.04
2023-03-23T23:05:38.084Z,70.65
2023-03-23T23:08:12.550Z,70.25
2023-03-23T23:10:47.816Z,69.37
2023-03-23T23:13:18.926Z,69.80
2023-03-23T23:15:55.241Z,69.70
2023-03-23T23:18:27.087Z,70.95
2023-03-23T23:21:00.792Z,70.59
2023-03-23T23:23:34.966Z,71.75
2023-03-23T23:26:03.549Z,70.43
2023-03-23T23:28:33.386Z,70.82
2023-03-23T23:31:06.990Z,71.69
2023-03-23T23:33:36.458Z,71.64
2023-03-23T23:36:17.312Z,72.83
2023-03-23T23:38:46.265Z,72.35
2023-03-23T23:41:16.784Z,72.41
2023-03-23T23:43:46.909Z,72.31
2023-03-23T23:46:21.006Z,71.61
2023-03-23T23:48:56.817Z,70.51
2023-03-23T23:51:54.089Z,70.01
2023-03-23T23:54:30.087Z,69.01
2023-03-23T23:57:00.186Z,68.57
2023-03-23T23:59:35.742Z,68.96
